Time;durP1;ratioP1;P1;durP2;ratioP2;P2;SDS_P1;SDS_P2;PMS_P1;PMS_P2;Temp;Humidity;BMP_temperature;BMP_pressure;BME280_temperature;BME280_humidity;BME280_pressure;Samples;Min_cycle;Max_cycle;Signal;HPM_P1;HPM_P2
2022/09/27 00:00:27;;;;;;;0.90;0.90;;;16.50;99.90;;;;;;4903093;29;20119;-81
2022/09/27 00:02:53;;;;;;;0.50;0.50;;;15.90;99.90;;;;;;4902448;29;20028;-81
2022/09/27 00:05:19;;;;;;;0.40;0.40;;;15.90;99.90;;;;;;4919938;29;20032;-81
2022/09/27 00:07:45;;;;;;;0.47;0.47;;;16.00;99.90;;;;;;4919359;29;20103;-81
2022/09/27 00:10:11;;;;;;;0.20;0.20;;;16.40;99.90;;;;;;4919614;29;20107;-80
2022/09/27 00:12:38;;;;;;;0.20;0.20;;;15.90;99.90;;;;;;4902403;29;20031;-80
2022/09/27 00:15:05;;;;;;;1.75;1.65;;;16.00;99.90;;;;;;4919445;29;20535;-80
2022/09/27 00:17:31;;;;;;;0.20;0.20;;;16.00;99.90;;;;;;4919344;29;20432;-81
2022/09/27 00:20:01;;;;;;;0.30;0.30;;;16.10;99.90;;;;;;4902298;29;20032;-82
2022/09/27 00:22:27;;;;;;;0.47;0.47;;;15.90;99.90;;;;;;4902281;29;20032;-81
2022/09/27 00:24:53;;;;;;;0.20;0.20;;;16.40;99.90;;;;;;4919476;29;20046;-80
2022/09/27 00:27:20;;;;;;;0.25;0.25;;;16.00;99.90;;;;;;4919382;29;20381;-81
2022/09/27 00:29:46;;;;;;;0.30;0.30;;;15.90;99.90;;;;;;4902239;29;20106;-80
2022/09/27 00:32:13;;;;;;;0.20;0.20;;;16.20;99.90;;;;;;4919034;29;20040;-80
2022/09/27 00:34:40;;;;;;;0.20;0.20;;;16.40;99.90;;;;;;4902407;29;20392;-80
2022/09/27 00:37:07;;;;;;;0.20;0.20;;;16.00;99.90;;;;;;4895936;29;20039;-80
2022/09/27 00:39:33;;;;;;;0.20;0.20;;;16.40;99.90;;;;;;4902277;29;20030;-82
2022/09/27 00:41:59;;;;;;;0.30;0.30;;;16.10;99.90;;;;;;4919310;29;20107;-80
2022/09/27 00:44:28;;;;;;;0.30;0.30;;;16.40;99.90;;;;;;4901675;29;20043;-81
2022/09/27 00:47:02;;;;;;;0.57;0.57;;;15.90;99.90;;;;;;4918884;29;20039;-81
2022/09/27 00:49:35;;;;;;;0.10;0.10;;;16.40;99.90;;;;;;4918648;29;20478;-80
2022/09/27 00:52:07;;;;;;;0.20;0.20;;;16.40;99.90;;;;;;4918459;29;20020;-80
2022/09/27 00:54:35;;;;;;;0.20;0.20;;;16.20;99.90;;;;;;4917651;29;20051;-81
2022/09/27 00:57:03;;;;;;;0.10;0.10;;;16.30;99.90;;;;;;4918954;29;20028;-80
2022/09/27 00:59:36;;;;;;;0.10;0.10;;;16.20;99.90;;;;;;4918778;29;20114;-81
2022/09/27 01:02:05;;;;;;;0.10;0.10;;;16.20;99.90;;;;;;4919039;29;20106;-80
2022/09/27 01:04:32;;;;;;;0.20;0.20;;;16.30;99.90;;;;;;4918294;29;20099;-82
2022/09/27 01:06:59;;;;;;;0.10;0.10;;;16.20;99.90;;;;;;4918909;29;20387;-81
2022/09/27 01:09:25;;;;;;;0.10;0.10;;;15.90;99.90;;;;;;4901623;29;20115;-81
2022/09/27 01:12:09;;;;;;;0.10;0.10;;;16.00;99.90;;;;;;4918521;29;20036;-80
2022/09/27 01:15:00;;;;;;;0.10;0.10;;;16.40;99.90;;;;;;4901497;29;20032;-83
2022/09/27 01:17:50;;;;;;;0.10;0.10;;;16.10;99.90;;;;;;4918734;29;20476;-81
2022/09/27 01:20:15;;;;;;;0.10;0.10;;;16.30;99.90;;;;;;4918340;29;20038;-81
2022/09/27 01:22:58;;;;;;;0.10;0.10;;;16.20;99.90;;;;;;4901105;29;20114;-80
2022/09/27 01:25:49;;;;;;;0.10;0.10;;;15.90;99.90;;;;;;4901561;29;20368;-81
2022/09/27 01:28:28;;;;;;;0.10;0.10;;;15.90;99.90;;;;;;4918176;29;20036;-80
2022/09/27 01:31:03;;;;;;;0.10;0.10;;;16.20;99.90;;;;;;4918239;29;20110;-80
2022/09/27 01:33:43;;;;;;;0.10;0.10;;;15.90;99.90;;;;;;4901087;29;20082;-80
2022/09/27 01:36:21;;;;;;;0.10;0.10;;;16.30;99.90;;;;;;4918148;29;20040;-81
2022/09/27 01:39:16;;;;;;;0.10;0.10;;;16.30;99.90;;;;;;4912380;29;20531;-80
2022/09/27 01:42:01;;;;;;;0.10;0.10;;;16.20;99.90;;;;;;4917705;29;20031;-80
2022/09/27 01:44:34;;;;;;;1.23;1.13;;;15.90;99.90;;;;;;4901013;29;20055;-81
2022/09/27 01:47:10;;;;;;;0.10;0.10;;;16.20;99.90;;;;;;4917862;29;20032;-81
2022/09/27 01:49:52;;;;;;;0.10;0.10;;;16.20;99.90;;;;;;4900925;29;20464;-80
2022/09/27 01:52:22;;;;;;;0.20;0.20;;;16.20;99.90;;;;;;4917886;29;20036;-81
2022/09/27 01:54:53;;;;;;;0.20;0.20;;;16.00;99.90;;;;;;4901100;29;20047;-80
2022/09/27 01:57:23;;;;;;;0.22;0.22;;;15.80;99.90;;;;;;4901552;29;20032;-82
2022/09/27 02:00:06;;;;;;;0.17;0.17;;;16.20;99.90;;;;;;4918270;29;20503;-80
2022/09/27 02:02:39;;;;;;;0.10;0.10;;;15.80;99.90;;;;;;4901472;29;20484;-80
2022/09/27 02:05:08;;;;;;;0.10;0.10;;;15.70;99.90;;;;;;4917518;29;20032;-80
2022/09/27 02:07:40;;;;;;;0.10;0.10;;;16.10;99.90;;;;;;4917886;29;20112;-80
2022/09/27 02:10:17;;;;;;;0.10;0.10;;;15.70;99.90;;;;;;4918185;29;20031;-81
2022/09/27 02:12:56;;;;;;;0.10;0.10;;;16.20;99.90;;;;;;4901136;29;20024;-80
2022/09/27 02:15:23;;;;;;;0.10;0.10;;;15.70;99.90;;;;;;4917804;29;20038;-79
2022/09/27 02:18:06;;;;;;;0.10;0.10;;;15.90;99.90;;;;;;4917621;29;20048;-83
2022/09/27 02:20:39;;;;;;;0.13;0.13;;;15.90;99.90;;;;;;4901055;29;20436;-83
2022/09/27 02:23:04;;;;;;;0.10;0.10;;;15.90;99.90;;;;;;4894129;29;20047;-80
2022/09/27 02:25:57;;;;;;;0.10;0.10;;;15.80;99.90;;;;;;4900041;29;20032;-81
2022/09/27 02:28:31;;;;;;;0.03;0.03;;;15.70;99.90;;;;;;4917285;29;20039;-82
2022/09/27 02:30:57;;;;;;;0.10;0.10;;;15.90;99.90;;;;;;4917636;29;20091;-83
2022/09/27 02:33:43;;;;;;;0.10;0.10;;;16.10;99.90;;;;;;4917208;29;20032;-82
2022/09/27 02:36:10;;;;;;;0.00;0.00;;;15.70;99.90;;;;;;4899920;29;20036;-82
2022/09/27 02:38:36;;;;;;;0.10;0.10;;;16.00;99.90;;;;;;4900313;29;20475;-81
2022/09/27 02:41:02;;;;;;;0.00;0.00;;;16.00;99.90;;;;;;4900142;29;20515;-81
2022/09/27 02:43:31;;;;;;;0.00;0.00;;;15.70;99.90;;;;;;4916673;29;20112;-81
2022/09/27 02:46:38;;;;;;;0.10;0.10;;;16.10;99.90;;;;;;4917102;29;20032;-80
2022/09/27 02:49:18;;;;;;;0.00;0.00;;;15.70;99.90;;;;;;4899920;29;20122;-81
2022/09/27 02:52:13;;;;;;;0.00;0.00;;;15.90;99.90;;;;;;4899950;29;20040;-82
2022/09/27 02:55:00;;;;;;;0.00;0.00;;;16.10;99.90;;;;;;4916141;29;20044;-82
2022/09/27 02:58:14;;;;;;;0.10;0.10;;;15.70;99.90;;;;;;4916532;29;20031;-82
2022/09/27 03:00:55;;;;;;;0.05;0.05;;;16.10;99.90;;;;;;4916773;29;20024;-83
2022/09/27 03:03:29;;;;;;;0.10;0.10;;;16.00;99.90;;;;;;4899647;29;20036;-81
2022/09/27 03:06:06;;;;;;;0.00;0.00;;;15.70;99.90;;;;;;4899996;29;20123;-81
2022/09/27 03:08:33;;;;;;;0.00;0.00;;;15.90;99.90;;;;;;4916692;29;20055;-80
2022/09/27 03:10:58;;;;;;;0.10;0.10;;;16.00;99.90;;;;;;4916495;29;20052;-81
2022/09/27 03:13:25;;;;;;;0.00;0.00;;;15.80;99.90;;;;;;4900224;29;20052;-80
2022/09/27 03:15:50;;;;;;;0.10;0.10;;;16.10;99.90;;;;;;4900225;29;20040;-81
2022/09/27 03:18:16;;;;;;;0.20;0.20;;;15.70;99.90;;;;;;4904014;29;20052;-80
2022/09/27 03:20:42;;;;;;;0.10;0.10;;;15.80;99.90;;;;;;4904061;29;20124;-82
2022/09/27 03:23:08;;;;;;;0.10;0.10;;;15.80;99.90;;;;;;4904481;29;20474;-80
2022/09/27 03:25:34;;;;;;;0.10;0.10;;;15.90;99.90;;;;;;4920961;29;20491;-80
2022/09/27 03:27:59;;;;;;;0.10;0.10;;;15.90;99.90;;;;;;4920699;29;20023;-80
2022/09/27 03:30:25;;;;;;;0.00;0.00;;;15.90;99.90;;;;;;4920795;29;20032;-81
2022/09/27 03:32:51;;;;;;;0.10;0.10;;;15.90;99.90;;;;;;4920489;29;20025;-81
2022/09/27 03:35:17;;;;;;;0.10;0.10;;;16.00;99.90;;;;;;4904012;29;20502;-81
2022/09/27 03:37:43;;;;;;;0.20;0.20;;;15.80;99.90;;;;;;4920580;29;20090;-81
2022/09/27 03:40:09;;;;;;;0.08;0.08;;;15.80;99.90;;;;;;4920395;29;20391;-80
2022/09/27 03:42:35;;;;;;;0.10;0.10;;;16.10;99.90;;;;;;4920455;29;20508;-80
2022/09/27 03:45:01;;;;;;;0.10;0.10;;;16.00;99.90;;;;;;4919710;29;20032;-82
2022/09/27 03:47:27;;;;;;;0.00;0.00;;;16.10;99.90;;;;;;4920501;29;20124;-81
2022/09/27 03:49:52;;;;;;;0.00;0.00;;;15.90;99.90;;;;;;4920359;29;20032;-81
2022/09/27 03:52:18;;;;;;;0.00;0.00;;;15.90;99.90;;;;;;4919937;29;20468;-79
2022/09/27 03:54:44;;;;;;;0.00;0.00;;;15.80;99.90;;;;;;4919478;29;20124;-80
2022/09/27 03:57:10;;;;;;;0.00;0.00;;;15.60;99.90;;;;;;4919979;29;20115;-80
2022/09/27 03:59:36;;;;;;;0.63;0.63;;;15.60;99.90;;;;;;4919321;29;20480;-81
2022/09/27 04:02:02;;;;;;;0.20;0.20;;;15.60;99.90;;;;;;4919897;29;20472;-80
2022/09/27 04:04:27;;;;;;;0.20;0.20;;;15.80;99.90;;;;;;4919809;29;20040;-81
2022/09/27 04:06:53;;;;;;;0.10;0.10;;;15.60;99.90;;;;;;4919747;29;20033;-81
2022/09/27 04:09:19;;;;;;;0.10;0.10;;;15.60;99.90;;;;;;4919571;29;20036;-82
2022/09/27 04:11:45;;;;;;;0.10;0.10;;;15.90;99.90;;;;;;4919948;29;20060;-80
2022/09/27 04:14:11;;;;;;;0.00;0.00;;;16.00;99.90;;;;;;4902252;29;20032;-82
2022/09/27 04:16:39;;;;;;;0.10;0.10;;;16.00;99.90;;;;;;4902337;29;20052;-81
2022/09/27 04:19:06;;;;;;;0.00;0.00;;;15.70;99.90;;;;;;4919980;29;20039;-81
2022/09/27 04:21:33;;;;;;;0.10;0.10;;;15.80;99.90;;;;;;4919574;29;20032;-81
2022/09/27 04:23:59;;;;;;;0.00;0.00;;;16.10;99.90;;;;;;4919538;29;20028;-81
2022/09/27 04:26:24;;;;;;;0.00;0.00;;;16.00;99.90;;;;;;4902339;29;20066;-82
2022/09/27 04:28:51;;;;;;;0.00;0.00;;;16.10;99.90;;;;;;4918971;29;20024;-82
2022/09/27 04:31:17;;;;;;;0.00;0.00;;;15.80;99.90;;;;;;4919212;29;20035;-80
2022/09/27 04:33:43;;;;;;;0.00;0.00;;;16.00;99.90;;;;;;4902695;29;20031;-80
2022/09/27 04:36:27;;;;;;;0.10;0.10;;;15.70;99.90;;;;;;4919325;29;20135;-81
2022/09/27 04:38:54;;;;;;;0.13;0.13;;;15.70;99.90;;;;;;4919858;29;20031;-80
2022/09/27 04:41:21;;;;;;;0.10;0.10;;;15.80;99.90;;;;;;4918872;29;20048;-81
2022/09/27 04:43:47;;;;;;;0.10;0.10;;;16.10;99.90;;;;;;4898690;29;20123;-80
2022/09/27 04:46:13;;;;;;;0.10;0.10;;;16.10;99.90;;;;;;4902379;29;20032;-81
2022/09/27 04:48:40;;;;;;;0.10;0.10;;;15.80;99.90;;;;;;4919491;29;20387;-80
2022/09/27 04:51:05;;;;;;;0.10;0.10;;;16.20;99.90;;;;;;4902524;29;20024;-81
2022/09/27 04:53:31;;;;;;;0.10;0.10;;;16.10;99.90;;;;;;4919199;29;20036;-81
2022/09/27 04:56:01;;;;;;;0.10;0.10;;;16.10;99.90;;;;;;4919089;29;20115;-82
2022/09/27 04:58:28;;;;;;;0.10;0.10;;;16.10;99.90;;;;;;4901839;29;20028;-80
2022/09/27 05:00:57;;;;;;;0.10;0.10;;;16.20;99.90;;;;;;4918609;29;20123;-80
2022/09/27 05:03:22;;;;;;;0.10;0.10;;;16.10;99.90;;;;;;4918595;29;20127;-80
2022/09/27 05:05:48;;;;;;;0.10;0.10;;;16.10;99.90;;;;;;4918770;29;20056;-80
2022/09/27 05:08:14;;;;;;;0.10;0.10;;;16.20;99.90;;;;;;4918952;29;20032;-81
2022/09/27 05:10:40;;;;;;;0.10;0.10;;;15.90;99.90;;;;;;4918412;29;20030;-80
2022/09/27 05:13:06;;;;;;;0.10;0.10;;;16.10;99.90;;;;;;4918897;29;20047;-81
2022/09/27 05:15:32;;;;;;;0.10;0.10;;;16.00;99.90;;;;;;4919271;29;20054;-81
2022/09/27 05:17:58;;;;;;;0.10;0.10;;;16.20;99.90;;;;;;4901585;29;20044;-81
2022/09/27 05:20:24;;;;;;;0.10;0.10;;;16.00;99.90;;;;;;4919117;29;20079;-81
2022/09/27 05:22:51;;;;;;;0.10;0.10;;;16.20;99.90;;;;;;4901993;29;20032;-80
2022/09/27 05:25:17;;;;;;;0.10;0.10;;;16.30;99.90;;;;;;4918705;29;20024;-80
2022/09/27 05:27:43;;;;;;;0.10;0.10;;;16.30;99.90;;;;;;4901817;29;20028;-81
2022/09/27 05:30:09;;;;;;;0.10;0.10;;;16.40;99.90;;;;;;4902095;29;20380;-80
2022/09/27 05:32:40;;;;;;;0.10;0.10;;;16.30;99.90;;;;;;4918616;29;20036;-80
2022/09/27 05:35:06;;;;;;;0.10;0.10;;;16.10;99.90;;;;;;4918585;29;20040;-79
2022/09/27 05:37:33;;;;;;;0.10;0.10;;;16.10;99.90;;;;;;4918932;29;20055;-80
2022/09/27 05:39:58;;;;;;;0.10;0.10;;;16.30;99.90;;;;;;4918095;29;20028;-80
2022/09/27 05:42:24;;;;;;;0.10;0.10;;;16.20;99.90;;;;;;4918490;29;20541;-79
2022/09/27 05:44:50;;;;;;;0.10;0.10;;;16.40;99.90;;;;;;4917717;29;20035;-81
2022/09/27 05:47:16;;;;;;;0.10;0.10;;;16.10;99.90;;;;;;4900843;29;20028;-81
2022/09/27 05:49:41;;;;;;;0.10;0.10;;;16.50;99.90;;;;;;4917875;29;20543;-84
2022/09/27 05:52:07;;;;;;;0.10;0.10;;;16.60;99.90;;;;;;4900459;29;20440;-83
2022/09/27 05:54:33;;;;;;;0.10;0.10;;;16.40;99.90;;;;;;4917554;29;20063;-83
2022/09/27 05:56:59;;;;;;;0.10;0.10;;;16.20;99.90;;;;;;4900890;29;20032;-82
2022/09/27 05:59:26;;;;;;;0.10;0.10;;;16.20;99.90;;;;;;4917554;29;20075;-82
2022/09/27 06:01:52;;;;;;;0.10;0.10;;;16.40;99.90;;;;;;4917712;29;20116;-81
2022/09/27 06:04:19;;;;;;;0.20;0.20;;;16.20;99.90;;;;;;4917127;29;20107;-82
2022/09/27 06:06:45;;;;;;;0.10;0.10;;;16.10;99.90;;;;;;4900384;29;20028;-81
2022/09/27 06:09:12;;;;;;;0.10;0.10;;;16.30;99.90;;;;;;4917559;29;20028;-82
2022/09/27 06:11:38;;;;;;;0.10;0.10;;;16.30;99.90;;;;;;4916102;29;20036;-82
2022/09/27 06:14:04;;;;;;;0.30;0.30;;;16.60;99.90;;;;;;4916766;29;20032;-80
2022/09/27 06:16:30;;;;;;;0.10;0.10;;;16.40;99.90;;;;;;4916649;29;20100;-82
2022/09/27 06:18:56;;;;;;;0.00;0.00;;;16.50;99.90;;;;;;4900561;29;20115;-81
2022/09/27 06:21:23;;;;;;;0.08;0.08;;;16.30;99.90;;;;;;4900205;29;20032;-82
2022/09/27 06:23:50;;;;;;;0.15;0.15;;;16.30;99.90;;;;;;4900167;29;20459;-81
2022/09/27 06:26:16;;;;;;;0.10;0.10;;;16.30;99.90;;;;;;4917394;29;20036;-84
2022/09/27 06:28:42;;;;;;;1.20;1.17;;;16.40;99.90;;;;;;4917247;29;20492;-82
2022/09/27 06:31:08;;;;;;;0.10;0.10;;;16.70;99.90;;;;;;4917195;29;20028;-81
2022/09/27 06:33:34;;;;;;;0.10;0.10;;;16.30;99.90;;;;;;4900011;29;20523;-82
2022/09/27 06:36:01;;;;;;;0.10;0.10;;;16.60;99.90;;;;;;4917161;29;20079;-82
2022/09/27 06:38:27;;;;;;;0.10;0.10;;;16.50;99.90;;;;;;4900162;29;20084;-81
2022/09/27 06:40:54;;;;;;;0.10;0.10;;;16.50;99.90;;;;;;4916833;29;20111;-80
2022/09/27 06:43:20;;;;;;;0.10;0.10;;;16.30;99.90;;;;;;4900216;29;20127;-80
2022/09/27 06:45:46;;;;;;;0.10;0.10;;;16.40;99.90;;;;;;4899988;29;20036;-81
2022/09/27 06:48:14;;;;;;;0.10;0.10;;;16.50;99.90;;;;;;4916797;29;20027;-80
2022/09/27 06:50:43;;;;;;;0.05;0.05;;;16.60;99.90;;;;;;4916798;29;20388;-82
2022/09/27 06:53:10;;;;;;;0.10;0.10;;;16.40;99.90;;;;;;4916879;29;20024;-82
2022/09/27 06:55:37;;;;;;;0.30;0.30;;;16.50;99.90;;;;;;4899686;29;20040;-81
2022/09/27 07:00:52;;;;;;;0.10;0.10;;;16.40;99.90;;;;;;4916349;29;20071;-80
2022/09/27 07:03:21;;;;;;;0.68;0.68;;;16.50;99.90;;;;;;4916812;29;20024;-80
2022/09/27 07:06:03;;;;;;;0.10;0.10;;;16.70;99.90;;;;;;4900254;29;20032;-80
2022/09/27 07:08:29;;;;;;;0.30;0.30;;;16.70;99.90;;;;;;4900072;29;20083;-80
2022/09/27 07:11:06;;;;;;;0.10;0.10;;;16.70;99.90;;;;;;4899881;29;20043;-80
2022/09/27 07:13:35;;;;;;;0.10;0.10;;;16.70;99.90;;;;;;4899244;29;20028;-81
2022/09/27 07:16:02;;;;;;;0.08;0.08;;;16.80;99.90;;;;;;4900192;29;20029;-80
2022/09/27 07:18:28;;;;;;;0.10;0.10;;;16.70;99.90;;;;;;4905051;29;20077;-80
2022/09/27 07:20:54;;;;;;;0.10;0.10;;;16.90;99.90;;;;;;4881508;29;20464;-80
2022/09/27 07:23:20;;;;;;;0.10;0.10;;;16.50;99.90;;;;;;4898681;29;20033;-80
2022/09/27 07:25:46;;;;;;;0.10;0.10;;;16.40;99.90;;;;;;4897071;29;20036;-79
2022/09/27 07:28:17;;;;;;;0.10;0.10;;;16.60;99.90;;;;;;4880423;29;20069;-83
2022/09/27 07:30:44;;;;;;;0.47;0.47;;;16.80;99.90;;;;;;4880886;29;20028;-81
2022/09/27 07:33:11;;;;;;;0.10;0.10;;;16.50;99.90;;;;;;4881102;29;20032;-82
2022/09/27 07:35:41;;;;;;;0.05;0.05;;;16.70;99.90;;;;;;4880941;29;20048;-80
2022/09/27 07:38:12;;;;;;;0.13;0.13;;;16.60;99.90;;;;;;4897618;29;20024;-78
2022/09/27 07:40:38;;;;;;;0.00;0.00;;;16.80;99.90;;;;;;4897785;29;20039;-80
2022/09/27 07:43:04;;;;;;;0.00;0.00;;;17.00;99.90;;;;;;4881907;29;20119;-80
2022/09/27 07:45:30;;;;;;;0.00;0.00;;;17.00;99.90;;;;;;4914528;29;20119;-81
2022/09/27 07:47:56;;;;;;;0.00;0.00;;;16.80;99.90;;;;;;4911414;29;20028;-79
2022/09/27 07:50:23;;;;;;;0.00;0.00;;;16.90;99.90;;;;;;4915141;29;20524;-80
2022/09/27 07:52:49;;;;;;;0.20;0.20;;;16.80;99.90;;;;;;4917393;29;20056;-79
2022/09/27 07:55:17;;;;;;;0.00;0.00;;;16.70;99.90;;;;;;4916910;29;20122;-82
2022/09/27 07:57:45;;;;;;;0.00;0.00;;;17.00;99.90;;;;;;4896778;29;20358;-80
2022/09/27 08:00:14;;;;;;;0.00;0.00;;;16.90;99.90;;;;;;4898169;29;20029;-80
2022/09/27 08:02:41;;;;;;;0.00;0.00;;;16.80;99.90;;;;;;4898652;29;20025;-78
2022/09/27 08:05:07;;;;;;;0.00;0.00;;;16.80;99.90;;;;;;4901165;29;20032;-79
2022/09/27 08:07:33;;;;;;;0.00;0.00;;;16.90;99.90;;;;;;4901274;29;20063;-78
2022/09/27 08:09:59;;;;;;;0.00;0.00;;;16.80;99.90;;;;;;4901091;29;20056;-80
2022/09/27 08:12:25;;;;;;;0.00;0.00;;;17.10;99.90;;;;;;4884446;29;20484;-80
2022/09/27 08:14:51;;;;;;;0.10;0.10;;;17.00;99.90;;;;;;4901276;29;20478;-79
2022/09/27 08:17:18;;;;;;;0.73;0.73;;;17.10;99.90;;;;;;4892032;29;20492;-79
2022/09/27 08:19:47;;;;;;;0.00;0.00;;;17.00;99.90;;;;;;4919621;29;20055;-79
2022/09/27 08:22:13;;;;;;;0.20;0.20;;;17.20;99.90;;;;;;4919668;29;20054;-81
2022/09/27 08:24:39;;;;;;;0.00;0.00;;;17.10;99.90;;;;;;4920086;29;20063;-80
2022/09/27 08:27:06;;;;;;;0.00;0.00;;;17.20;99.90;;;;;;4919688;29;20028;-80
2022/09/27 08:29:36;;;;;;;0.30;0.30;;;17.30;99.90;;;;;;4920152;29;20028;-80
2022/09/27 08:32:02;;;;;;;0.13;0.10;;;17.20;99.90;;;;;;4902813;29;20032;-79
2022/09/27 08:34:28;;;;;;;0.40;0.40;;;17.30;99.90;;;;;;4919842;29;20028;-80
2022/09/27 08:36:55;;;;;;;0.88;0.88;;;17.60;99.90;;;;;;4919489;29;20031;-79
2022/09/27 08:39:23;;;;;;;0.00;0.00;;;17.50;99.90;;;;;;4902744;29;20059;-79
2022/09/27 08:42:08;;;;;;;0.00;0.00;;;17.60;99.90;;;;;;4902757;29;20032;-79
2022/09/27 08:45:10;;;;;;;0.00;0.00;;;17.80;99.90;;;;;;4921473;29;20103;-78
2022/09/27 08:47:44;;;;;;;0.10;0.10;;;18.00;99.90;;;;;;4914392;29;20419;-79
2022/09/27 08:50:28;;;;;;;3.85;0.32;;;17.90;99.90;;;;;;4919304;29;20088;-81
2022/09/27 08:53:01;;;;;;;0.10;0.10;;;18.00;99.90;;;;;;4918834;29;20491;-81
2022/09/27 08:55:36;;;;;;;0.10;0.10;;;17.90;99.90;;;;;;4918108;29;20039;-80
2022/09/27 08:58:11;;;;;;;0.10;0.10;;;17.80;99.90;;;;;;4918740;29;20020;-81
2022/09/27 09:00:38;;;;;;;0.10;0.10;;;17.80;99.90;;;;;;4912020;29;20028;-78
2022/09/27 09:03:03;;;;;;;0.10;0.10;;;17.80;99.90;;;;;;4901292;29;20111;-81
2022/09/27 09:05:33;;;;;;;0.10;0.10;;;18.00;99.90;;;;;;4919032;29;20548;-79
2022/09/27 09:08:02;;;;;;;0.10;0.10;;;18.10;99.90;;;;;;4901577;29;20061;-79
2022/09/27 09:13:51;;;;;;;0.10;0.10;;;18.00;99.90;;;;;;4918122;29;20044;-81
2022/09/27 09:16:35;;;;;;;0.10;0.10;;;18.10;99.90;;;;;;4901372;29;20039;-81
2022/09/27 09:19:12;;;;;;;0.17;0.17;;;18.10;99.90;;;;;;4918729;29;20498;-81
2022/09/27 09:21:46;;;;;;;0.10;0.10;;;18.20;99.90;;;;;;4901816;29;20025;-79
2022/09/27 09:24:36;;;;;;;0.08;0.08;;;18.20;99.90;;;;;;4902316;29;20028;-78
2022/09/27 09:27:40;;;;;;;0.10;0.10;;;18.30;99.90;;;;;;4901987;29;20079;-78
2022/09/27 09:30:24;;;;;;;0.15;0.15;;;18.20;99.90;;;;;;4895008;29;20047;-81
2022/09/27 09:33:24;;;;;;;0.10;0.10;;;18.30;99.90;;;;;;4918212;29;20052;-81
2022/09/27 09:36:05;;;;;;;0.10;0.10;;;18.30;99.90;;;;;;4918520;29;20047;-79
2022/09/27 09:38:45;;;;;;;0.10;0.10;;;18.30;99.90;;;;;;4901948;29;20491;-81
2022/09/27 09:41:21;;;;;;;0.10;0.10;;;18.40;99.90;;;;;;4918473;29;20024;-81
2022/09/27 09:43:53;;;;;;;0.00;0.00;;;18.30;99.90;;;;;;4918313;29;20164;-80
2022/09/27 09:46:27;;;;;;;0.35;0.35;;;18.30;99.90;;;;;;4910156;29;20047;-80
2022/09/27 09:49:06;;;;;;;0.10;0.10;;;18.30;99.90;;;;;;4912746;29;20033;-80
2022/09/27 09:51:41;;;;;;;0.20;0.20;;;18.40;99.90;;;;;;4915130;29;20111;-81
2022/09/27 09:54:22;;;;;;;0.30;0.30;;;18.40;99.90;;;;;;4900328;29;20092;-80
2022/09/27 09:56:58;;;;;;;0.30;0.30;;;18.50;99.90;;;;;;4917269;29;20036;-78
2022/09/27 09:59:34;;;;;;;0.40;0.40;;;18.50;99.90;;;;;;4917733;29;20051;-80
2022/09/27 10:02:32;;;;;;;0.30;0.30;;;18.50;99.90;;;;;;4917049;29;20075;-80
2022/09/27 10:05:00;;;;;;;0.30;0.30;;;18.50;99.90;;;;;;4918131;29;20028;-80
2022/09/27 10:07:27;;;;;;;0.17;0.17;;;18.50;99.90;;;;;;4917814;29;20051;-81
2022/09/27 10:09:58;;;;;;;0.50;0.50;;;18.60;99.90;;;;;;4901188;29;20036;-81
2022/09/27 10:12:25;;;;;;;0.30;0.30;;;18.40;99.90;;;;;;4918580;29;20028;-82
2022/09/27 10:14:52;;;;;;;0.20;0.20;;;18.30;99.90;;;;;;4918222;29;20063;-83
2022/09/27 10:17:23;;;;;;;0.20;0.20;;;18.30;99.90;;;;;;4917854;29;20076;-82
2022/09/27 10:19:53;;;;;;;0.20;0.20;;;18.30;99.90;;;;;;4917935;29;20103;-79
2022/09/27 10:22:35;;;;;;;0.60;0.60;;;18.30;99.90;;;;;;4900384;29;20032;-81
2022/09/27 10:25:05;;;;;;;0.22;0.22;;;18.30;99.90;;;;;;4900017;29;20031;-81
2022/09/27 10:27:46;;;;;;;0.20;0.20;;;18.30;99.90;;;;;;4917535;29;20375;-81
2022/09/27 10:30:22;;;;;;;0.20;0.20;;;18.50;99.90;;;;;;4916438;29;20020;-80
2022/09/27 10:32:52;;;;;;;0.20;0.20;;;18.50;99.90;;;;;;4914199;29;20027;-82
2022/09/27 10:35:40;;;;;;;0.10;0.10;;;18.50;99.90;;;;;;4900068;29;20039;-80
2022/09/27 10:38:24;;;;;;;0.20;0.20;;;18.50;99.90;;;;;;4915099;29;20107;-81
2022/09/27 10:40:52;;;;;;;0.10;0.10;;;18.60;99.90;;;;;;4915750;29;20028;-80
2022/09/27 10:43:27;;;;;;;0.10;0.10;;;18.50;99.90;;;;;;4916723;29;20155;-81
2022/09/27 10:45:59;;;;;;;0.20;0.20;;;18.50;99.90;;;;;;4916764;29;20028;-80
2022/09/27 10:48:25;;;;;;;0.20;0.20;;;18.50;99.90;;;;;;4900207;29;20032;-80
2022/09/27 10:50:59;;;;;;;0.20;0.20;;;18.60;99.90;;;;;;4917044;29;20032;-80
2022/09/27 10:53:26;;;;;;;0.60;0.60;;;18.80;99.90;;;;;;4915427;29;20035;-80
2022/09/27 10:55:52;;;;;;;0.40;0.40;;;18.90;99.90;;;;;;4899774;29;20044;-80
2022/09/27 10:58:31;;;;;;;1.63;1.52;;;19.00;99.90;;;;;;4914634;29;20039;-79
2022/09/27 11:01:02;;;;;;;0.28;0.28;;;19.30;99.90;;;;;;4899722;29;20031;-80
2022/09/27 11:03:35;;;;;;;0.10;0.10;;;19.50;99.90;;;;;;4899976;29;20119;-80
2022/09/27 11:06:18;;;;;;;0.10;0.10;;;;;;;;;;4897827;29;20114;-81
2022/09/27 11:08:47;;;;;;;0.40;0.40;;;19.60;99.90;;;;;;4917451;29;20028;-81
2022/09/27 11:11:13;;;;;;;0.40;0.40;;;19.60;99.90;;;;;;4917457;29;20028;-80
2022/09/27 11:13:39;;;;;;;0.32;0.32;;;19.50;99.90;;;;;;4917293;29;20502;-80
2022/09/27 11:16:31;;;;;;;0.50;0.50;;;19.50;99.90;;;;;;4917000;29;20119;-79
2022/09/27 11:19:48;;;;;;;0.40;0.40;;;19.40;99.90;;;;;;4900342;29;20128;-80
2022/09/27 11:22:42;;;;;;;0.20;0.20;;;19.30;99.90;;;;;;4858716;29;20049;-81
2022/09/27 11:25:14;;;;;;;0.00;0.00;;;19.20;99.90;;;;;;4859142;29;20092;-80
2022/09/27 11:27:59;;;;;;;1.02;1.02;;;19.00;99.90;;;;;;4859099;29;20448;-81
2022/09/27 11:30:34;;;;;;;0.00;0.00;;;18.90;99.90;;;;;;4842271;29;20428;-81
2022/09/27 11:33:39;;;;;;;0.20;0.20;;;18.80;99.90;;;;;;4858762;29;20073;-79
2022/09/27 11:36:34;;;;;;;0.20;0.20;;;18.60;99.90;;;;;;4841720;29;20084;-81
2022/09/27 11:39:11;;;;;;;0.10;0.10;;;18.60;99.90;;;;;;4846072;29;20042;-83
2022/09/27 11:42:04;;;;;;;0.75;0.75;;;18.50;99.90;;;;;;4862539;29;20037;-81
2022/09/27 11:44:50;;;;;;;0.10;0.10;;;18.40;99.90;;;;;;4862261;29;20045;-80
2022/09/27 11:47:19;;;;;;;0.10;0.10;;;18.30;99.90;;;;;;4862627;29;20037;-80
2022/09/27 11:49:56;;;;;;;0.05;0.05;;;18.30;99.90;;;;;;4862105;29;20071;-82
2022/09/27 11:52:35;;;;;;;0.10;0.10;;;18.10;99.90;;;;;;4862451;29;20042;-81
2022/09/27 11:55:29;;;;;;;0.30;0.30;;;18.00;99.90;;;;;;4846503;29;20080;-82
2022/09/27 11:58:10;;;;;;;0.10;0.10;;;17.80;99.90;;;;;;4893389;29;20060;-82
2022/09/27 12:00:50;;;;;;;0.08;0.08;;;17.50;99.90;;;;;;4903596;29;20038;-81
2022/09/27 12:03:46;;;;;;;0.22;0.22;;;17.00;99.90;;;;;;4920381;29;20043;-79
2022/09/27 12:06:20;;;;;;;0.60;0.60;;;16.60;99.90;;;;;;4920390;29;20032;-77
2022/09/27 12:09:09;;;;;;;0.30;0.30;;;16.40;99.90;;;;;;4903484;29;20088;-77
2022/09/27 12:11:47;;;;;;;0.10;0.10;;;16.30;99.90;;;;;;4920695;29;20035;-76
2022/09/27 12:14:19;;;;;;;0.30;0.30;;;16.20;99.90;;;;;;4903870;29;20496;-77
2022/09/27 12:16:46;;;;;;;;;;;16.10;99.90;;;;;;4920229;29;20048;-77
2022/09/27 12:19:22;;;;;;;2.83;0.28;;;15.80;99.90;;;;;;4920312;29;19914;-78
2022/09/27 12:21:48;;;;;;;0.20;0.20;;;16.00;99.90;;;;;;4919999;29;20067;-79
2022/09/27 12:24:22;;;;;;;0.32;0.32;;;16.20;99.90;;;;;;4903035;29;20375;-78
2022/09/27 12:26:52;;;;;;;0.10;0.10;;;16.00;99.90;;;;;;4918931;29;20028;-79
2022/09/27 12:29:32;;;;;;;0.20;0.20;;;15.90;99.90;;;;;;4920067;29;20024;-79
2022/09/27 12:32:13;;;;;;;0.20;0.20;;;16.10;99.90;;;;;;4919847;29;20103;-78
2022/09/27 12:34:57;;;;;;;0.22;0.22;;;15.90;99.90;;;;;;4902891;29;20487;-78
2022/09/27 12:37:29;;;;;;;0.57;0.57;;;15.60;99.90;;;;;;4919532;29;20108;-78
2022/09/27 12:40:17;;;;;;;0.10;0.10;;;15.70;99.90;;;;;;4919872;29;20032;-79
2022/09/27 12:42:50;;;;;;;0.20;0.20;;;15.60;99.90;;;;;;4901965;29;20468;-79
2022/09/27 12:45:21;;;;;;;0.25;0.25;;;15.60;99.90;;;;;;4902540;29;20086;-78
2022/09/27 12:48:11;;;;;;;0.20;0.20;;;16.20;99.90;;;;;;4919592;29;20025;-77
2022/09/27 12:50:46;;;;;;;0.20;0.20;;;16.30;99.90;;;;;;4919548;29;20036;-78
2022/09/27 12:53:24;;;;;;;0.20;0.20;;;16.30;99.90;;;;;;4902465;29;20055;-79
2022/09/27 12:55:57;;;;;;;0.20;0.20;;;16.20;99.90;;;;;;4902179;29;20138;-79
2022/09/27 12:58:41;;;;;;;0.20;0.20;;;15.80;99.90;;;;;;4919103;29;20468;-78
2022/09/27 13:01:35;;;;;;;0.20;0.20;;;15.90;99.90;;;;;;4919521;29;20060;-78
2022/09/27 13:04:26;;;;;;;0.20;0.20;;;16.10;99.90;;;;;;4919199;29;20080;-78
2022/09/27 13:07:28;;;;;;;0.20;0.20;;;16.30;99.90;;;;;;4918933;29;20036;-81
2022/09/27 13:10:16;;;;;;;1.90;1.80;;;16.60;99.90;;;;;;4919311;29;20491;-78
2022/09/27 13:12:49;;;;;;;0.08;0.08;;;16.20;99.90;;;;;;4902142;29;20060;-79
2022/09/27 13:15:32;;;;;;;0.10;0.10;;;17.00;99.90;;;;;;4902220;29;20503;-79
2022/09/27 13:18:00;;;;;;;0.20;0.20;;;16.80;99.90;;;;;;4918752;29;20055;-79
2022/09/27 13:20:35;;;;;;;0.47;0.43;;;17.10;99.90;;;;;;4918895;29;20059;-79